Time;durP1;ratioP1;P1;durP2;ratioP2;P2;SDS_P1;SDS_P2;PMS_P1;PMS_P2;Temp;Humidity;BMP_temperature;BMP_pressure;BME280_temperature;BME280_humidity;BME280_pressure;Samples;Min_cycle;Max_cycle;Signal;HPM_P1;HPM_P2
2023/06/14 00:04:36;;;;;;;2.42;1.33;;;33.80;43.00;;;;;;10490764;28;20048;-30
2023/06/14 00:09:38;;;;;;;2.78;1.77;;;33.70;42.90;;;;;;10501072;28;20409;-28
2023/06/14 00:14:41;;;;;;;2.03;1.67;;;33.60;42.90;;;;;;10497387;28;20541;-31
2023/06/14 00:19:43;;;;;;;2.80;1.40;;;33.60;43.00;;;;;;10491530;28;20149;-30
2023/06/14 00:24:45;;;;;;;1.83;1.30;;;33.50;42.90;;;;;;10492573;28;20504;-30
2023/06/14 00:29:48;;;;;;;2.42;1.42;;;33.50;43.10;;;;;;10502641;28;20121;-30
2023/06/14 00:34:50;;;;;;;2.92;1.50;;;33.40;43.00;;;;;;10504084;28;20186;-30
2023/06/14 00:39:51;;;;;;;3.67;1.67;;;33.40;43.10;;;;;;10486794;28;20472;-30
2023/06/14 00:44:55;;;;;;;2.72;1.33;;;33.30;43.10;;;;;;10488969;28;20123;-29
2023/06/14 00:49:57;;;;;;;2.97;1.35;;;33.30;43.10;;;;;;10495634;28;20048;-30
2023/06/14 00:54:59;;;;;;;3.63;1.90;;;33.20;43.10;;;;;;10504763;28;20036;-29
2023/06/14 01:00:04;;;;;;;5.15;1.40;;;33.20;43.20;;;;;;10500477;28;20124;-31
2023/06/14 01:05:09;;;;;;;2.35;1.55;;;33.10;43.20;;;;;;10502482;28;20531;-30
2023/06/14 01:10:21;;;;;;;3.35;1.67;;;33.10;43.20;;;;;;10487486;28;20461;-30
2023/06/14 01:15:24;;;;;;;2.70;1.48;;;33.00;43.20;;;;;;10505269;28;20059;-30
2023/06/14 01:20:30;;;;;;;2.10;1.48;;;33.00;43.30;;;;;;10499822;28;20139;-31
2023/06/14 01:25:35;;;;;;;3.72;1.55;;;33.00;43.30;;;;;;10494015;28;20072;-30
2023/06/14 01:30:38;;;;;;;2.38;1.50;;;32.90;43.40;;;;;;10493880;28;20473;-30
2023/06/14 01:35:40;;;;;;;2.67;1.60;;;32.80;43.30;;;;;;10493392;28;20048;-31
2023/06/14 01:40:45;;;;;;;3.50;1.58;;;32.80;43.40;;;;;;10496082;28;20049;-32
2023/06/14 01:45:49;;;;;;;2.63;1.40;;;32.70;43.30;;;;;;10490062;28;20082;-37
2023/06/14 01:50:51;;;;;;;1.77;1.48;;;32.70;43.30;;;;;;10490965;28;20048;-31
2023/06/14 01:55:54;;;;;;;2.10;1.70;;;32.70;43.30;;;;;;10491137;28;20555;-30
2023/06/14 02:00:57;;;;;;;2.83;1.48;;;32.60;43.30;;;;;;10482841;28;20450;-30
2023/06/14 02:05:59;;;;;;;2.53;1.50;;;32.50;43.20;;;;;;10490331;28;20568;-30
2023/06/14 02:11:03;;;;;;;2.53;1.50;;;32.50;43.20;;;;;;10500164;28;20102;-30
2023/06/14 02:16:05;;;;;;;1.45;1.35;;;32.50;43.30;;;;;;10476673;28;20056;-29
2023/06/14 02:21:07;;;;;;;2.35;1.67;;;32.40;43.20;;;;;;10492222;28;20072;-30
2023/06/14 02:26:10;;;;;;;2.65;1.63;;;32.40;43.30;;;;;;10498674;28;20119;-31
2023/06/14 02:31:12;;;;;;;2.17;1.77;;;32.30;43.20;;;;;;10495210;28;20079;-30
2023/06/14 02:36:14;;;;;;;1.95;1.50;;;32.30;43.10;;;;;;10507779;28;20645;-29
2023/06/14 02:41:17;;;;;;;1.90;1.40;;;32.20;43.10;;;;;;10487975;28;20075;-31
2023/06/14 02:46:19;;;;;;;3.40;1.80;;;32.20;43.10;;;;;;10502403;28;21268;-27
2023/06/14 02:51:21;;;;;;;2.40;1.27;;;32.10;43.00;;;;;;10498514;28;20070;-31
2023/06/14 02:56:25;;;;;;;4.07;1.63;;;32.10;43.10;;;;;;10476262;28;20147;-32
2023/06/14 03:15:27;;;;;;;3.05;1.50;;;31.90;42.70;;;;;;10440797;27;2077605;-35
2023/06/14 03:20:29;;;;;;;2.60;1.70;;;31.90;42.90;;;;;;10485818;28;20049;-29
2023/06/14 03:25:32;;;;;;;2.60;1.90;;;31.80;42.90;;;;;;10488257;28;20407;-29
2023/06/14 03:30:36;;;;;;;2.55;1.50;;;31.80;42.80;;;;;;10505091;28;20506;-31
2023/06/14 03:35:37;;;;;;;2.78;1.55;;;31.70;42.80;;;;;;10488557;28;20072;-30
2023/06/14 03:40:39;;;;;;;2.20;1.60;;;31.70;42.90;;;;;;10482414;28;20045;-29
2023/06/14 03:45:42;;;;;;;2.60;1.83;;;31.60;42.80;;;;;;10486464;28;20076;-29
2023/06/14 03:50:44;;;;;;;2.45;1.90;;;31.60;42.80;;;;;;10481471;28;20053;-29
2023/06/14 03:55:46;;;;;;;1.88;1.67;;;31.60;42.80;;;;;;10477120;28;20045;-29
2023/06/14 04:00:49;;;;;;;5.78;1.50;;;31.60;42.90;;;;;;10489771;28;20110;-28
2023/06/14 04:05:56;;;;;;;3.58;1.80;;;31.50;42.80;;;;;;10490463;28;20133;-29
2023/06/14 04:10:58;;;;;;;6.05;1.60;;;31.50;42.80;;;;;;10486810;28;20132;-29
2023/06/14 04:16:01;;;;;;;11.95;1.83;;;31.40;42.60;;;;;;10484892;28;20057;-30
2023/06/14 04:21:04;;;;;;;3.70;1.80;;;31.40;42.60;;;;;;10482677;28;20079;-32
2023/06/14 04:26:06;;;;;;;2.90;1.40;;;31.40;42.70;;;;;;10468952;28;20103;-29
2023/06/14 04:31:09;;;;;;;2.42;1.50;;;31.40;42.60;;;;;;10456559;28;20099;-30
2023/06/14 04:36:12;;;;;;;2.08;1.45;;;31.30;42.50;;;;;;10446226;28;20044;-32
2023/06/14 04:41:15;;;;;;;4.00;1.70;;;31.30;42.40;;;;;;10462542;28;20079;-29
2023/06/14 04:46:19;;;;;;;3.80;2.10;;;31.30;42.40;;;;;;10452730;28;20374;-33
2023/06/14 04:51:29;;;;;;;2.42;1.52;;;31.30;42.20;;;;;;10440444;28;20045;-31
2023/06/14 04:56:31;;;;;;;2.70;1.93;;;31.20;42.00;;;;;;10449992;28;20470;-30
2023/06/14 05:01:35;;;;;;;4.05;1.85;;;31.20;42.00;;;;;;10443466;28;20044;-29
2023/06/14 05:06:38;;;;;;;5.13;1.73;;;31.20;42.00;;;;;;10450940;28;20166;-29
2023/06/14 05:11:39;;;;;;;4.45;2.00;;;31.20;42.00;;;;;;10446681;28;20064;-29
2023/06/14 05:16:42;;;;;;;12.75;1.50;;;31.20;42.00;;;;;;10436343;28;20108;-28
2023/06/14 05:21:44;;;;;;;3.50;1.55;;;31.20;42.00;;;;;;10438299;28;20057;-30
2023/06/14 05:26:46;;;;;;;3.63;1.90;;;31.10;41.80;;;;;;10436940;28;20120;-29
2023/06/14 05:31:49;;;;;;;3.42;1.67;;;31.10;41.80;;;;;;10436401;28;20119;-30
2023/06/14 05:36:51;;;;;;;2.78;1.80;;;31.10;41.70;;;;;;10447142;28;20045;-28
2023/06/14 05:41:53;;;;;;;9.07;1.63;;;31.10;41.80;;;;;;10446449;28;20551;-29
2023/06/14 05:46:56;;;;;;;3.08;1.48;;;30.70;41.30;;;;;;10453610;28;20053;-32
2023/06/14 05:51:58;;;;;;;5.18;1.38;;;30.90;41.60;;;;;;10445626;28;20088;-27
2023/06/14 05:57:01;;;;;;;5.43;2.15;;;30.90;41.50;;;;;;10433108;28;20057;-30
2023/06/14 06:02:05;;;;;;;4.75;1.50;;;31.00;41.60;;;;;;10438323;28;20118;-30
2023/06/14 06:07:07;;;;;;;4.57;1.50;;;30.90;41.40;;;;;;10442500;28;20053;-29
2023/06/14 06:12:08;;;;;;;7.53;1.90;;;31.00;41.40;;;;;;10447347;28;20057;-30
2023/06/14 06:17:12;;;;;;;2.72;1.70;;;31.00;41.50;;;;;;10436876;28;20654;-31
2023/06/14 06:22:14;;;;;;;3.92;1.65;;;31.00;41.50;;;;;;10436754;28;20056;-29
2023/06/14 06:27:16;;;;;;;1.67;1.13;;;31.00;41.40;;;;;;10446810;28;20147;-29
2023/06/14 06:32:19;;;;;;;3.95;1.60;;;31.00;41.40;;;;;;10446805;28;20147;-28
2023/06/14 06:37:21;;;;;;;4.03;1.98;;;31.00;41.40;;;;;;10440424;28;20076;-33
2023/06/14 06:42:23;;;;;;;5.53;1.60;;;31.00;41.40;;;;;;10436127;28;20041;-27
2023/06/14 06:47:26;;;;;;;5.35;1.70;;;31.00;41.30;;;;;;10436484;28;20503;-29
2023/06/14 06:52:29;;;;;;;4.13;1.92;;;31.00;41.20;;;;;;10444428;28;20143;-32
2023/06/14 06:57:31;;;;;;;3.35;1.70;;;31.00;41.30;;;;;;10452569;28;20067;-28
2023/06/14 07:02:34;;;;;;;2.90;1.58;;;31.10;41.40;;;;;;10453353;28;20560;-30
2023/06/14 07:07:38;;;;;;;2.78;1.70;;;31.10;41.50;;;;;;10446169;28;20135;-29
2023/06/14 07:12:40;;;;;;;3.03;1.92;;;31.00;42.10;;;;;;10451394;28;20060;-30
2023/06/14 07:17:43;;;;;;;4.35;1.70;;;31.10;41.50;;;;;;10436572;28;20049;-30
2023/06/14 07:22:45;;;;;;;2.78;1.38;;;31.10;42.20;;;;;;10436956;28;20099;-28
2023/06/14 07:27:47;;;;;;;2.92;1.40;;;31.10;41.90;;;;;;10438755;28;20073;-30
2023/06/14 07:32:50;;;;;;;3.90;1.50;;;31.20;41.90;;;;;;10445385;28;20084;-30
2023/06/14 07:37:52;;;;;;;2.08;1.50;;;31.20;42.10;;;;;;10442147;28;20110;-28
2023/06/14 07:42:54;;;;;;;2.63;1.50;;;31.20;42.10;;;;;;10439854;28;20048;-29
2023/06/14 07:47:57;;;;;;;2.05;1.63;;;31.20;42.10;;;;;;10445843;28;20074;-29
2023/06/14 07:52:59;;;;;;;6.50;2.20;;;31.20;42.50;;;;;;10446660;28;20057;-31
2023/06/14 07:58:01;;;;;;;5.45;1.33;;;30.90;42.10;;;;;;10442261;28;20053;-29
2023/06/14 08:03:04;;;;;;;3.13;1.75;;;31.20;41.90;;;;;;10453074;28;20127;-29
2023/06/14 08:08:06;;;;;;;2.33;1.70;;;31.20;42.00;;;;;;10457532;28;20085;-29
2023/06/14 08:13:09;;;;;;;3.17;1.70;;;31.20;42.00;;;;;;10453565;28;20144;-29
2023/06/14 08:18:12;;;;;;;1.88;1.30;;;31.30;41.70;;;;;;10444123;28;20485;-29
2023/06/14 08:23:14;;;;;;;5.60;1.52;;;31.40;41.80;;;;;;10451573;28;20500;-29
2023/06/14 08:28:16;;;;;;;2.60;1.48;;;31.40;41.60;;;;;;10451067;28;20533;-30
2023/06/14 08:33:19;;;;;;;3.85;1.38;;;31.40;41.60;;;;;;10448278;28;20041;-29
2023/06/14 08:38:21;;;;;;;2.95;1.50;;;31.70;41.50;;;;;;10436561;28;20413;-31
2023/06/14 08:43:23;;;;;;;2.63;1.17;;;31.50;41.60;;;;;;10451382;28;20072;-33
2023/06/14 08:48:27;;;;;;;2.95;1.85;;;31.40;42.40;;;;;;10439147;28;20129;-30
2023/06/14 08:53:31;;;;;;;3.92;1.65;;;31.90;40.80;;;;;;10447693;28;20048;-34
2023/06/14 08:58:36;;;;;;;3.35;1.80;;;31.60;41.50;;;;;;10457206;28;20045;-30
2023/06/14 09:03:40;;;;;;;3.85;1.73;;;31.70;41.30;;;;;;10453618;28;20051;-29
2023/06/14 09:08:44;;;;;;;2.38;1.50;;;32.00;41.20;;;;;;10450716;28;20087;-29
2023/06/14 09:13:46;;;;;;;1.55;1.40;;;31.60;41.60;;;;;;10434549;28;20057;-32
2023/06/14 09:18:50;;;;;;;2.20;1.80;;;32.00;40.80;;;;;;10447354;28;20069;-30
2023/06/14 09:23:53;;;;;;;2.55;1.40;;;32.20;43.60;;;;;;10441724;28;20049;-28
2023/06/14 09:28:55;;;;;;;2.75;1.92;;;32.10;41.70;;;;;;10446420;28;20053;-27
2023/06/14 09:34:02;;;;;;;3.22;1.95;;;32.20;40.60;;;;;;10435241;28;20045;-30
2023/06/14 09:39:06;;;;;;;4.32;1.60;;;31.40;41.70;;;;;;10436466;28;20049;-28
2023/06/14 09:44:09;;;;;;;1.65;1.30;;;31.10;42.00;;;;;;10444672;28;20137;-29
2023/06/14 09:49:12;;;;;;;2.08;1.67;;;30.70;41.80;;;;;;10451242;28;20041;-30
2023/06/14 09:54:17;;;;;;;3.10;2.20;;;31.80;41.80;;;;;;10439791;28;20111;-31
2023/06/14 09:59:29;;;;;;;3.42;2.13;;;31.50;41.50;;;;;;10438985;28;20122;-32
2023/06/14 10:04:34;;;;;;;6.85;2.30;;;31.40;39.60;;;;;;10442676;28;20375;-32
2023/06/14 10:09:36;;;;;;;3.13;1.90;;;31.30;40.10;;;;;;10440059;28;20120;-30
2023/06/14 10:14:39;;;;;;;4.35;2.13;;;31.10;39.30;;;;;;10449163;28;20093;-30
2023/06/14 10:19:47;;;;;;;2.78;1.63;;;31.40;39.80;;;;;;10446770;28;20060;-27
2023/06/14 10:24:50;;;;;;;3.88;1.60;;;32.00;41.40;;;;;;10445593;28;20098;-31
2023/06/14 10:30:06;;;;;;;3.20;1.40;;;31.90;40.70;;;;;;10446009;28;20037;-29
2023/06/14 10:35:10;;;;;;;7.57;1.80;;;32.00;41.00;;;;;;10442413;28;20481;-35
2023/06/14 10:40:31;;;;;;;4.00;1.70;;;31.80;39.70;;;;;;10445032;28;20474;-30
2023/06/14 10:45:33;;;;;;;1.45;1.30;;;32.00;41.60;;;;;;10437654;28;20080;-36
2023/06/14 10:50:36;;;;;;;1.50;1.38;;;31.40;42.40;;;;;;10443705;28;20041;-30
2023/06/14 10:55:38;;;;;;;1.60;1.40;;;31.80;40.70;;;;;;10427253;28;20555;-30
2023/06/14 11:00:44;;;;;;;1.67;1.45;;;32.40;40.80;;;;;;10434498;28;20052;-31
2023/06/14 11:05:52;;;;;;;2.17;1.45;;;32.60;40.80;;;;;;10447920;28;20044;-33
2023/06/14 11:10:59;;;;;;;5.20;1.58;;;32.50;39.80;;;;;;10436145;28;20470;-34
2023/06/14 11:16:01;;;;;;;2.78;1.55;;;32.40;38.90;;;;;;10439846;28;20084;-32
2023/06/14 11:21:04;;;;;;;2.80;1.30;;;32.60;35.60;;;;;;10440781;28;20128;-31
2023/06/14 11:26:06;;;;;;;2.70;1.60;;;33.40;39.40;;;;;;10434864;28;20067;-30
2023/06/14 11:31:08;;;;;;;2.13;1.33;;;33.30;40.10;;;;;;10449306;28;20102;-29
2023/06/14 11:36:12;;;;;;;2.08;1.25;;;32.70;40.30;;;;;;10453750;28;20143;-32
2023/06/14 11:41:13;;;;;;;1.90;1.40;;;33.10;40.00;;;;;;10460906;28;20052;-30
2023/06/14 11:46:16;;;;;;;2.17;1.13;;;32.80;39.10;;;;;;10452297;28;20143;-30
2023/06/14 11:51:20;;;;;;;2.88;1.60;;;33.20;39.50;;;;;;10445669;28;20122;-36
2023/06/14 11:56:22;;;;;;;3.08;1.20;;;33.10;36.90;;;;;;10451445;28;20059;-33
2023/06/14 12:01:25;;;;;;;2.00;1.00;;;33.50;38.20;;;;;;10447778;28;20068;-30
2023/06/14 12:06:32;;;;;;;4.18;1.35;;;33.40;39.70;;;;;;10448612;28;20583;-37
2023/06/14 12:11:36;;;;;;;3.28;1.20;;;33.60;40.10;;;;;;10450843;28;20056;-31
2023/06/14 12:16:39;;;;;;;1.95;1.20;;;33.70;37.10;;;;;;10443792;28;20045;-36
2023/06/14 12:21:44;;;;;;;3.78;1.27;;;33.50;37.20;;;;;;10453725;28;20234;-31
2023/06/14 12:26:46;;;;;;;3.47;0.90;;;33.40;40.70;;;;;;10455690;28;20072;-31
2023/06/14 12:31:48;;;;;;;1.40;1.02;;;34.10;38.70;;;;;;10460619;28;20044;-36
2023/06/14 12:36:53;;;;;;;1.35;0.90;;;33.90;39.00;;;;;;10447048;28;20103;-30
2023/06/14 12:41:55;;;;;;;3.90;1.90;;;34.40;39.70;;;;;;10448440;28;20054;-29
2023/06/14 12:46:56;;;;;;;2.58;1.23;;;34.40;37.30;;;;;;10452409;28;20053;-29
2023/06/14 12:52:00;;;;;;;1.30;0.90;;;34.50;38.70;;;;;;10445156;28;20541;-30
2023/06/14 12:57:01;;;;;;;1.27;1.00;;;34.40;38.30;;;;;;10443271;28;20081;-30
2023/06/14 13:02:14;;;;;;;0.93;0.73;;;34.80;39.50;;;;;;10461968;28;20132;-29
2023/06/14 13:07:17;;;;;;;1.98;0.85;;;35.00;39.60;;;;;;10451402;28;20132;-30
2023/06/14 13:12:19;;;;;;;1.23;0.90;;;34.70;37.40;;;;;;10453777;28;20144;-30
2023/06/14 13:17:21;;;;;;;2.25;1.00;;;34.60;37.40;;;;;;10449285;28;20140;-29
2023/06/14 13:22:25;;;;;;;1.40;1.17;;;34.80;36.70;;;;;;10439409;28;20509;-32
2023/06/14 13:27:27;;;;;;;5.47;1.23;;;34.30;37.80;;;;;;10432147;28;20057;-31
2023/06/14 13:32:29;;;;;;;1.50;1.13;;;34.50;39.00;;;;;;10440047;28;20043;-31
2023/06/14 13:37:32;;;;;;;3.28;1.45;;;34.90;33.90;;;;;;10450060;28;20048;-27
2023/06/14 13:42:35;;;;;;;1.77;1.10;;;34.90;39.10;;;;;;10436960;28;20129;-29
2023/06/14 13:47:37;;;;;;;2.10;1.10;;;35.30;37.00;;;;;;10442313;28;20095;-31
2023/06/14 13:52:41;;;;;;;2.13;0.93;;;35.20;39.70;;;;;;10444523;28;20063;-29
2023/06/14 13:57:43;;;;;;;7.32;1.02;;;35.50;39.60;;;;;;10444106;28;20144;-29
2023/06/14 14:02:45;;;;;;;0.93;0.80;;;35.50;37.60;;;;;;10455471;28;20053;-29
2023/06/14 14:07:48;;;;;;;1.95;0.90;;;35.70;39.70;;;;;;10456423;28;20511;-30
2023/06/14 14:12:50;;;;;;;1.98;0.80;;;36.40;38.80;;;;;;10443328;28;20413;-29
2023/06/14 14:17:54;;;;;;;0.93;0.75;;;36.80;38.00;;;;;;10449560;28;20084;-30
2023/06/14 14:22:57;;;;;;;4.70;0.80;;;36.60;39.90;;;;;;10455430;28;20110;-34
2023/06/14 14:27:59;;;;;;;1.42;0.90;;;36.50;39.50;;;;;;10445701;28;20140;-29
2023/06/14 14:33:01;;;;;;;3.45;0.90;;;37.10;38.60;;;;;;10444736;28;20060;-28
2023/06/14 14:38:04;;;;;;;1.50;0.70;;;37.30;39.00;;;;;;10446958;28;20102;-30
2023/06/14 14:43:06;;;;;;;6.60;0.90;;;37.30;37.20;;;;;;10428979;28;20500;-29
2023/06/14 14:48:08;;;;;;;0.95;0.80;;;38.00;39.10;;;;;;10435239;28;20122;-30
2023/06/14 14:53:11;;;;;;;1.70;0.70;;;37.80;40.10;;;;;;10443156;28;20504;-33
2023/06/14 14:58:16;;;;;;;1.48;0.88;;;37.70;40.30;;;;;;10450419;28;20045;-29
2023/06/14 15:03:18;;;;;;;1.08;0.55;;;37.30;39.50;;;;;;10434076;28;20474;-31
2023/06/14 15:08:21;;;;;;;0.80;0.70;;;37.30;39.00;;;;;;10447740;28;20733;-32
2023/06/14 15:13:23;;;;;;;1.67;1.20;;;37.60;35.80;;;;;;10449106;28;20502;-29
2023/06/14 15:18:25;;;;;;;1.35;0.80;;;38.20;37.10;;;;;;10444276;28;20049;-28
2023/06/14 15:23:29;;;;;;;1.52;1.00;;;38.50;41.20;;;;;;10435161;28;20546;-29
2023/06/14 15:28:32;;;;;;;5.60;0.90;;;37.70;39.20;;;;;;10431223;28;20072;-31
2023/06/14 15:33:34;;;;;;;0.90;0.70;;;38.60;39.50;;;;;;10444918;28;20099;-29
2023/06/14 15:38:37;;;;;;;3.90;0.88;;;38.30;34.50;;;;;;10438378;28;20048;-30
2023/06/14 15:43:39;;;;;;;11.07;0.70;;;39.40;39.00;;;;;;10434895;28;20096;-26
2023/06/14 15:48:41;;;;;;;7.63;1.40;;;39.60;38.20;;;;;;10445323;28;20145;-31
2023/06/14 15:53:44;;;;;;;2.08;0.90;;;39.60;36.20;;;;;;10450198;28;20148;-35
2023/06/14 15:58:46;;;;;;;1.27;0.82;;;39.60;38.60;;;;;;10423883;28;20174;-31
2023/06/14 16:03:48;;;;;;;2.72;0.80;;;39.40;36.10;;;;;;10420802;28;20130;-31
2023/06/14 16:08:52;;;;;;;2.67;0.90;;;40.30;40.10;;;;;;10428797;28;20057;-31
2023/06/14 16:13:55;;;;;;;0.88;0.60;;;39.40;38.70;;;;;;10428215;28;20143;-29
2023/06/14 16:18:57;;;;;;;1.42;0.90;;;39.60;40.70;;;;;;10405328;28;20048;-28
2023/06/14 16:24:00;;;;;;;4.03;1.10;;;39.70;39.90;;;;;;10426548;28;20103;-32
2023/06/14 16:29:02;;;;;;;1.65;0.70;;;39.60;39.20;;;;;;10428751;28;20053;-29
2023/06/14 16:34:08;;;;;;;1.50;0.70;;;40.20;43.00;;;;;;10441034;28;20044;-30
2023/06/14 16:39:12;;;;;;;3.80;0.90;;;40.20;39.30;;;;;;10420326;28;20486;-33
2023/06/14 16:44:14;;;;;;;1.75;0.80;;;40.10;43.20;;;;;;10454815;28;20060;-31
2023/06/14 16:49:16;;;;;;;1.33;0.85;;;39.80;44.10;;;;;;10436281;28;20079;-34
2023/06/14 16:54:19;;;;;;;2.55;1.08;;;39.90;39.90;;;;;;10446672;28;20052;-31
2023/06/14 16:59:21;;;;;;;1.25;0.88;;;40.30;42.90;;;;;;10451135;28;20052;-33
2023/06/14 17:04:23;;;;;;;2.42;1.10;;;40.10;38.00;;;;;;10447589;28;20521;-30
2023/06/14 17:09:27;;;;;;;2.00;1.00;;;40.40;45.10;;;;;;10445530;28;20574;-30
2023/06/14 17:14:30;;;;;;;2.40;0.88;;;40.90;51.40;;;;;;10444706;28;20114;-33
2023/06/14 17:19:31;;;;;;;4.18;0.68;;;40.90;48.00;;;;;;10448174;28;20133;-32
2023/06/14 17:24:35;;;;;;;3.28;1.00;;;41.00;43.10;;;;;;10448132;28;20049;-30
2023/06/14 17:29:36;;;;;;;0.85;0.65;;;40.70;45.90;;;;;;10443413;28;20064;-32
2023/06/14 17:34:39;;;;;;;1.27;0.85;;;40.40;44.60;;;;;;10447897;28;20049;-34
2023/06/14 17:39:43;;;;;;;1.10;0.60;;;40.60;45.50;;;;;;10440839;28;20126;-31
2023/06/14 17:44:45;;;;;;;2.28;0.95;;;40.40;48.10;;;;;;10451728;28;20091;-29
2023/06/14 17:49:49;;;;;;;1.38;0.65;;;40.20;45.90;;;;;;10451162;28;20041;-31
2023/06/14 17:54:53;;;;;;;0.80;0.50;;;40.40;46.80;;;;;;10436311;28;20102;-36
2023/06/14 17:59:55;;;;;;;2.67;1.02;;;40.40;46.50;;;;;;10447717;28;20465;-34
2023/06/14 18:04:57;;;;;;;1.80;1.10;;;40.50;43.30;;;;;;10433167;28;20522;-34
2023/06/14 18:10:01;;;;;;;1.13;0.75;;;40.20;43.70;;;;;;10445995;28;20527;-35
2023/06/14 18:15:02;;;;;;;1.27;0.88;;;40.20;43.90;;;;;;10443068;28;20071;-33
2023/06/14 18:20:05;;;;;;;5.40;0.73;;;40.20;43.30;;;;;;10444658;28;20099;-33
2023/06/14 18:25:09;;;;;;;2.03;0.73;;;41.00;46.40;;;;;;10445260;28;20073;-31
2023/06/14 18:30:11;;;;;;;1.55;1.05;;;40.60;42.60;;;;;;10446491;28;20474;-32
2023/06/14 18:35:13;;;;;;;1.15;0.90;;;40.10;41.00;;;;;;10438982;28;20052;-31
2023/06/14 18:40:17;;;;;;;1.45;0.63;;;39.90;42.70;;;;;;10446273;28;20045;-29
2023/06/14 18:45:19;;;;;;;2.35;0.80;;;39.90;42.90;;;;;;10440206;28;20044;-29
2023/06/14 18:50:21;;;;;;;2.08;0.73;;;39.60;42.60;;;;;;10442860;28;20049;-32
2023/06/14 18:55:25;;;;;;;3.40;1.88;;;39.90;47.60;;;;;;10427468;28;20132;-32
2023/06/14 19:00:29;;;;;;;0.85;0.60;;;39.90;43.40;;;;;;10431899;28;20049;-30
2023/06/14 19:05:31;;;;;;;3.20;0.70;;;40.00;47.00;;;;;;10433114;28;20151;-29
2023/06/14 19:10:34;;;;;;;1.15;0.70;;;40.30;50.50;;;;;;10435878;28;20053;-28
2023/06/14 19:15:36;;;;;;;2.10;0.77;;;40.60;53.70;;;;;;10430948;28;20087;-31
2023/06/14 19:20:39;;;;;;;1.00;0.70;;;40.10;47.10;;;;;;10447747;28;20599;-32
2023/06/14 19:25:42;;;;;;;4.47;1.10;;;39.70;47.40;;;;;;10437872;28;20056;-32
2023/06/14 19:30:44;;;;;;;1.85;0.70;;;39.50;46.10;;;;;;10437804;28;20095;-36
2023/06/14 19:35:46;;;;;;;1.77;0.93;;;39.40;46.10;;;;;;10439286;28;20045;-33
2023/06/14 19:40:49;;;;;;;3.42;1.05;;;39.20;45.60;;;;;;10450377;28;20057;-31
2023/06/14 19:45:51;;;;;;;1.67;0.70;;;39.00;45.40;;;;;;10442846;28;20074;-33
2023/06/14 19:50:53;;;;;;;2.20;1.05;;;38.90;45.20;;;;;;10435643;28;20629;-31
2023/06/14 19:55:57;;;;;;;3.95;1.10;;;38.80;45.20;;;;;;10451177;28;20498;-32
2023/06/14 20:00:59;;;;;;;3.80;1.42;;;38.60;44.90;;;;;;10445726;28;20400;-29
2023/06/14 20:06:01;;;;;;;1.65;1.05;;;38.50;45.10;;;;;;10451803;28;20555;-35
2023/06/14 20:11:04;;;;;;;1.33;0.90;;;38.30;45.50;;;;;;10444129;28;20053;-28
2023/06/14 20:16:06;;;;;;;1.52;1.05;;;38.20;44.60;;;;;;10437341;28;20544;-31
2023/06/14 20:21:08;;;;;;;2.38;1.05;;;38.10;44.70;;;;;;10447855;28;20474;-32
2023/06/14 20:26:12;;;;;;;2.85;1.33;;;37.90;44.50;;;;;;10444492;28;20059;-30
2023/06/14 20:31:18;;;;;;;1.92;1.17;;;37.80;44.40;;;;;;10443971;28;20110;-32
2023/06/14 20:36:20;;;;;;;4.68;1.88;;;37.70;44.20;;;;;;10458586;28;20060;-30
2023/06/14 20:41:24;;;;;;;4.35;1.10;;;37.60;44.20;;;;;;10448487;28;20048;-32
2023/06/14 20:46:28;;;;;;;3.33;1.35;;;37.40;43.80;;;;;;10451164;28;20093;-38
2023/06/14 20:51:30;;;;;;;5.88;1.17;;;37.20;43.50;;;;;;10444544;28;20482;-30
2023/06/14 20:56:33;;;;;;;2.05;0.90;;;37.10;43.10;;;;;;10448409;28;20048;-33
2023/06/14 21:01:35;;;;;;;8.82;1.33;;;36.90;42.90;;;;;;10436217;28;20132;-31
2023/06/14 21:06:38;;;;;;;1.73;1.00;;;36.80;42.70;;;;;;10436317;28;20067;-36
2023/06/14 21:11:41;;;;;;;2.92;1.00;;;36.60;42.60;;;;;;10444609;28;20274;-29
2023/06/14 21:16:43;;;;;;;3.72;0.90;;;36.50;41.90;;;;;;10444986;28;20057;-29
2023/06/14 21:21:45;;;;;;;4.63;0.90;;;36.40;42.10;;;;;;10436017;28;20054;-31
2023/06/14 21:26:49;;;;;;;1.95;1.20;;;36.30;42.20;;;;;;10439206;28;20042;-33
2023/06/14 21:31:50;;;;;;;1.95;0.90;;;36.20;42.30;;;;;;10442566;28;20056;-30
2023/06/14 21:36:53;;;;;;;1.85;0.85;;;36.10;42.10;;;;;;10443912;28;20121;-30
2023/06/14 21:41:56;;;;;;;1.00;0.80;;;36.00;42.40;;;;;;10454333;28;20037;-31
2023/06/14 21:46:58;;;;;;;5.68;1.02;;;35.90;42.50;;;;;;10429299;28;20078;-28
2023/06/14 21:51:59;;;;;;;3.15;1.15;;;35.80;42.50;;;;;;10438202;28;20178;-29
2023/06/14 21:57:03;;;;;;;3.85;1.40;;;35.80;42.60;;;;;;10439436;28;20090;-35
2023/06/14 22:02:05;;;;;;;1.92;1.35;;;35.70;42.70;;;;;;10446004;28;20051;-32
2023/06/14 22:07:08;;;;;;;1.20;1.10;;;35.60;42.70;;;;;;10434765;28;20128;-29
2023/06/14 22:12:15;;;;;;;2.30;1.05;;;35.50;42.70;;;;;;10439469;28;20056;-32
2023/06/14 22:17:21;;;;;;;1.50;1.00;;;35.40;42.70;;;;;;10445879;28;20061;-30
2023/06/14 22:22:25;;;;;;;1.95;1.30;;;35.30;42.60;;;;;;10446378;28;20052;-32
2023/06/14 22:27:29;;;;;;;2.15;0.98;;;35.20;42.50;;;;;;10446182;28;20051;-33
2023/06/14 22:32:32;;;;;;;2.00;1.08;;;35.10;42.50;;;;;;10445564;28;20067;-33
2023/06/14 22:37:37;;;;;;;2.33;1.25;;;35.00;42.60;;;;;;10442105;28;20130;-30
2023/06/14 22:42:45;;;;;;;1.60;1.10;;;35.00;42.50;;;;;;10447667;28;20136;-29
2023/06/14 22:47:47;;;;;;;2.38;1.55;;;34.90;42.50;;;;;;10433920;28;20424;-29
2023/06/14 22:52:50;;;;;;;3.35;1.25;;;34.80;42.50;;;;;;10445354;28;21193;-33
2023/06/14 22:57:53;;;;;;;1.48;1.05;;;34.70;42.50;;;;;;10433088;28;20045;-31
2023/06/14 23:02:56;;;;;;;4.80;1.30;;;34.60;42.30;;;;;;10453160;28;20047;-32
2023/06/14 23:07:58;;;;;;;1.48;1.00;;;34.60;43.00;;;;;;10447463;28;20658;-38
2023/06/14 23:13:02;;;;;;;1.20;1.10;;;34.50;42.40;;;;;;10443899;28;20502;-37
2023/06/14 23:18:05;;;;;;;1.35;1.20;;;34.40;42.50;;;;;;10452446;28;20082;-34
2023/06/14 23:23:07;;;;;;;1.77;1.17;;;34.30;42.50;;;;;;10438979;28;20037;-36
2023/06/14 23:28:10;;;;;;;1.60;1.15;;;34.20;42.40;;;;;;10445133;28;20045;-30
2023/06/14 23:33:12;;;;;;;5.03;1.48;;;34.20;42.50;;;;;;10458619;28;20131;-32
2023/06/14 23:38:15;;;;;;;2.45;1.35;;;34.10;42.40;;;;;;10466358;28;20080;-30
2023/06/14 23:43:19;;;;;;;1.92;1.20;;;34.10;42.60;;;;;;10453237;28;20068;-30
2023/06/14 23:48:21;;;;;;;2.38;1.10;;;34.00;42.40;;;;;;10453568;28;20045;-35
2023/06/14 23:53:24;;;;;;;1.25;1.00;;;33.90;42.30;;;;;;10442972;28;20736;-32
2023/06/14 23:58:29;;;;;;;3.75;1.23;;;33.90;42.40;;;;;;10463206;28;20051;-29
